sensor_id;sensor_type;location;lat;lon;timestamp;pressure;altitude;pressure_sealevel;temperature;humidity
17525;BME280;40431;52.198;9.902;2023-03-03T00:00:20;101577.88;;;-0.51;100.00
17525;BME280;40431;52.198;9.902;2023-03-03T00:02:46;101569.00;;;-0.56;100.00
17525;BME280;40431;52.198;9.902;2023-03-03T00:05:12;101564.56;;;-0.51;100.00
17525;BME280;40431;52.198;9.902;2023-03-03T00:07:42;101545.88;;;-0.44;100.00
17525;BME280;40431;52.198;9.902;2023-03-03T00:10:11;101544.13;;;-0.33;100.00
17525;BME280;40431;52.198;9.902;2023-03-03T00:12:45;101537.00;;;-0.25;100.00
17525;BME280;40431;52.198;9.902;2023-03-03T00:15:15;101545.00;;;-0.23;100.00
17525;BME280;40431;52.198;9.902;2023-03-03T00:17:42;101545.88;;;-0.23;100.00
17525;BME280;40431;52.198;9.902;2023-03-03T00:20:32;101548.56;;;-0.20;100.00
17525;BME280;40431;52.198;9.902;2023-03-03T00:23:12;101554.78;;;-0.14;100.00
17525;BME280;40431;52.198;9.902;2023-03-03T00:25:44;101552.13;;;-0.21;100.00
17525;BME280;40431;52.198;9.902;2023-03-03T00:28:22;101555.66;;;-0.31;100.00
17525;BME280;40431;52.198;9.902;2023-03-03T00:30:50;101542.34;;;-0.34;100.00
17525;BME280;40431;52.198;9.902;2023-03-03T00:33:23;101544.09;;;-0.45;100.00
17525;BME280;40431;52.198;9.902;2023-03-03T00:35:53;101548.53;;;-0.64;100.00
17525;BME280;40431;52.198;9.902;2023-03-03T00:38:19;101545.00;;;-0.59;100.00
17525;BME280;40431;52.198;9.902;2023-03-03T00:40:47;101546.75;;;-0.65;100.00
17525;BME280;40431;52.198;9.902;2023-03-03T00:43:18;101544.97;;;-0.68;100.00
17525;BME280;40431;52.198;9.902;2023-03-03T00:45:46;101559.19;;;-0.63;100.00
17525;BME280;40431;52.198;9.902;2023-03-03T00:48:20;101568.09;;;-0.58;100.00
17525;BME280;40431;52.198;9.902;2023-03-03T00:50:48;101564.53;;;-0.66;100.00
17525;BME280;40431;52.198;9.902;2023-03-03T00:53:15;101565.41;;;-0.56;100.00
17525;BME280;40431;52.198;9.902;2023-03-03T00:55:43;101564.56;;;-0.60;100.00
17525;BME280;40431;52.198;9.902;2023-03-03T00:58:12;101565.41;;;-0.67;100.00
17525;BME280;40431;52.198;9.902;2023-03-03T01:00:39;101562.75;;;-0.70;100.00
17525;BME280;40431;52.198;9.902;2023-03-03T01:03:08;101563.63;;;-0.68;100.00
17525;BME280;40431;52.198;9.902;2023-03-03T01:05:35;101572.53;;;-0.69;100.00
17525;BME280;40431;52.198;9.902;2023-03-03T01:08:02;101566.31;;;-0.63;100.00
17525;BME280;40431;52.198;9.902;2023-03-03T01:10:31;101561.00;;;-0.54;100.00
17525;BME280;40431;52.198;9.902;2023-03-03T01:12:59;101562.78;;;-0.62;100.00
17525;BME280;40431;52.198;9.902;2023-03-03T01:15:27;101561.88;;;-0.69;100.00
17525;BME280;40431;52.198;9.902;2023-03-03T01:17:54;101566.28;;;-0.71;100.00
17525;BME280;40431;52.198;9.902;2023-03-03T01:20:20;101559.16;;;-0.80;100.00
17525;BME280;40431;52.198;9.902;2023-03-03T01:22:47;101554.72;;;-0.82;100.00
17525;BME280;40431;52.198;9.902;2023-03-03T01:25:14;101560.03;;;-0.95;100.00
17525;BME280;40431;52.198;9.902;2023-03-03T01:27:40;101558.25;;;-0.90;100.00
17525;BME280;40431;52.198;9.902;2023-03-03T01:30:08;101564.47;;;-0.91;100.00
17525;BME280;40431;52.198;9.902;2023-03-03T01:32:36;101552.94;;;-0.93;100.00
17525;BME280;40431;52.198;9.902;2023-03-03T01:35:03;101560.91;;;-0.88;100.00
17525;BME280;40431;52.198;9.902;2023-03-03T01:37:29;101560.03;;;-0.92;100.00
17525;BME280;40431;52.198;9.902;2023-03-03T01:39:56;101562.69;;;-0.99;100.00
17525;BME280;40431;52.198;9.902;2023-03-03T01:42:22;101566.25;;;-0.93;100.00
17525;BME280;40431;52.198;9.902;2023-03-03T01:45:09;101575.13;;;-0.92;100.00
17525;BME280;40431;52.198;9.902;2023-03-03T01:47:42;101568.91;;;-0.90;100.00
17525;BME280;40431;52.198;9.902;2023-03-03T01:50:12;101561.81;;;-0.91;100.00
17525;BME280;40431;52.198;9.902;2023-03-03T01:52:41;101560.03;;;-0.95;100.00
17525;BME280;40431;52.198;9.902;2023-03-03T01:55:12;101562.69;;;-0.98;100.00
17525;BME280;40431;52.198;9.902;2023-03-03T01:57:42;101553.81;;;-0.97;100.00
17525;BME280;40431;52.198;9.902;2023-03-03T02:00:10;101552.03;;;-0.92;100.00
17525;BME280;40431;52.198;9.902;2023-03-03T02:02:39;101552.03;;;-0.92;100.00
17525;BME280;40431;52.198;9.902;2023-03-03T02:05:07;101558.25;;;-0.90;100.00
17525;BME280;40431;52.198;9.902;2023-03-03T02:07:34;101564.47;;;-0.92;100.00
17525;BME280;40431;52.198;9.902;2023-03-03T02:10:05;101577.81;;;-0.88;100.00
17525;BME280;40431;52.198;9.902;2023-03-03T02:12:35;101560.91;;;-0.96;100.00
17525;BME280;40431;52.198;9.902;2023-03-03T02:15:15;101561.78;;;-1.06;100.00
17525;BME280;40431;52.198;9.902;2023-03-03T02:17:43;101565.31;;;-1.10;100.00
17525;BME280;40431;52.198;9.902;2023-03-03T02:20:13;101570.66;;;-1.09;100.00
17525;BME280;40431;52.198;9.902;2023-03-03T02:22:46;101573.31;;;-1.09;100.00
17525;BME280;40431;52.198;9.902;2023-03-03T02:25:21;101560.84;;;-1.14;100.00
17525;BME280;40431;52.198;9.902;2023-03-03T02:27:52;101555.53;;;-1.07;100.00
17525;BME280;40431;52.198;9.902;2023-03-03T02:30:20;101554.69;;;-0.98;100.00
17525;BME280;40431;52.198;9.902;2023-03-03T02:32:46;101551.16;;;-0.89;100.00
17525;BME280;40431;52.198;9.902;2023-03-03T02:35:31;101552.88;;;-1.05;100.00
17525;BME280;40431;52.198;9.902;2023-03-03T02:38:03;101560.00;;;-1.07;100.00
17525;BME280;40431;52.198;9.902;2023-03-03T02:40:36;101547.56;;;-1.07;100.00
17525;BME280;40431;52.198;9.902;2023-03-03T02:43:08;101530.69;;;-1.13;100.00
17525;BME280;40431;52.198;9.902;2023-03-03T02:45:41;101536.03;;;-1.10;100.00
17525;BME280;40431;52.198;9.902;2023-03-03T02:48:07;101540.44;;;-1.22;100.00
17525;BME280;40431;52.198;9.902;2023-03-03T02:50:34;101540.47;;;-1.12;100.00
17525;BME280;40431;52.198;9.902;2023-03-03T02:53:00;101544.03;;;-1.09;100.00
17525;BME280;40431;52.198;9.902;2023-03-03T02:55:26;101554.63;;;-1.16;100.00
17525;BME280;40431;52.198;9.902;2023-03-03T02:57:53;101544.91;;;-1.11;100.00
17525;BME280;40431;52.198;9.902;2023-03-03T03:00:21;101545.75;;;-1.25;100.00
17525;BME280;40431;52.198;9.902;2023-03-03T03:02:47;101544.00;;;-1.20;100.00
17525;BME280;40431;52.198;9.902;2023-03-03T03:05:13;101558.22;;;-1.11;100.00
17525;BME280;40431;52.198;9.902;2023-03-03T03:07:40;101542.25;;;-1.11;100.00
17525;BME280;40431;52.198;9.902;2023-03-03T03:10:07;101549.38;;;-0.98;100.00
17525;BME280;40431;52.198;9.902;2023-03-03T03:12:34;101554.69;;;-0.93;100.00
17525;BME280;40431;52.198;9.902;2023-03-03T03:15:00;101549.41;;;-0.89;100.00
17525;BME280;40431;52.198;9.902;2023-03-03T03:17:28;101541.41;;;-0.90;100.00
17525;BME280;40431;52.198;9.902;2023-03-03T03:19:55;101534.28;;;-0.97;100.00
17525;BME280;40431;52.198;9.902;2023-03-03T03:22:21;101535.19;;;-0.97;100.00
17525;BME280;40431;52.198;9.902;2023-03-03T03:24:48;101531.63;;;-0.96;100.00
17525;BME280;40431;52.198;9.902;2023-03-03T03:27:14;101543.16;;;-1.00;100.00
17525;BME280;40431;52.198;9.902;2023-03-03T03:29:40;101544.03;;;-0.92;100.00
17525;BME280;40431;52.198;9.902;2023-03-03T03:32:07;101541.41;;;-0.90;100.00
17525;BME280;40431;52.198;9.902;2023-03-03T03:34:34;101542.28;;;-0.94;100.00
17525;BME280;40431;52.198;9.902;2023-03-03T03:37:01;101540.50;;;-0.91;100.00
17525;BME280;40431;52.198;9.902;2023-03-03T03:39:27;101538.72;;;-1.01;100.00
17525;BME280;40431;52.198;9.902;2023-03-03T03:41:54;101546.66;;;-1.15;100.00
17525;BME280;40431;52.198;9.902;2023-03-03T03:44:21;101548.44;;;-1.15;100.00
17525;BME280;40431;52.198;9.902;2023-03-03T03:46:48;101552.84;;;-1.22;100.00
17525;BME280;40431;52.198;9.902;2023-03-03T03:49:14;101552.88;;;-1.11;100.00
17525;BME280;40431;52.198;9.902;2023-03-03T03:51:42;101548.44;;;-1.08;100.00
17525;BME280;40431;52.198;9.902;2023-03-03T03:54:08;101535.16;;;-1.03;100.00
17525;BME280;40431;52.198;9.902;2023-03-03T03:56:34;101540.50;;;-0.94;100.00
17525;BME280;40431;52.198;9.902;2023-03-03T03:59:01;101541.41;;;-0.84;100.00
17525;BME280;40431;52.198;9.902;2023-03-03T04:01:27;101538.75;;;-0.79;100.00
17525;BME280;40431;52.198;9.902;2023-03-03T04:03:53;101542.31;;;-0.73;100.00
17525;BME280;40431;52.198;9.902;2023-03-03T04:06:20;101546.75;;;-0.67;100.00
17525;BME280;40431;52.198;9.902;2023-03-03T04:08:48;101550.31;;;-0.70;100.00
17525;BME280;40431;52.198;9.902;2023-03-03T04:11:14;101555.63;;;-0.71;100.00
17525;BME280;40431;52.198;9.902;2023-03-03T04:13:41;101561.81;;;-0.85;100.00
17525;BME280;40431;52.198;9.902;2023-03-03T04:16:07;101568.03;;;-0.86;100.00
17525;BME280;40431;52.198;9.902;2023-03-03T04:18:34;101568.88;;;-1.02;100.00
17525;BME280;40431;52.198;9.902;2023-03-03T04:21:00;101572.47;;;-0.94;100.00
17525;BME280;40431;52.198;9.902;2023-03-03T04:23:26;101570.69;;;-0.82;100.00
17525;BME280;40431;52.198;9.902;2023-03-03T04:25:54;101568.03;;;-0.84;100.00
17525;BME280;40431;52.198;9.902;2023-03-03T04:28:20;101570.69;;;-0.82;100.00
17525;BME280;40431;52.198;9.902;2023-03-03T04:30:48;101571.59;;;-0.77;100.00
17525;BME280;40431;52.198;9.902;2023-03-03T04:33:15;101570.72;;;-0.75;100.00
17525;BME280;40431;52.198;9.902;2023-03-03T04:35:41;101562.75;;;-0.69;100.00
17525;BME280;40431;52.198;9.902;2023-03-03T04:38:07;101564.53;;;-0.66;100.00
17525;BME280;40431;52.198;9.902;2023-03-03T04:40:34;101567.22;;;-0.60;100.00
17525;BME280;40431;52.198;9.902;2023-03-03T04:43:01;101574.31;;;-0.56;100.00
17525;BME280;40431;52.198;9.902;2023-03-03T04:45:28;101564.56;;;-0.60;100.00
17525;BME280;40431;52.198;9.902;2023-03-03T04:47:54;101569.84;;;-0.61;100.00
17525;BME280;40431;52.198;9.902;2023-03-03T04:50:20;101571.63;;;-0.59;100.00
17525;BME280;40431;52.198;9.902;2023-03-03T04:52:47;101578.72;;;-0.55;100.00
17525;BME280;40431;52.198;9.902;2023-03-03T04:55:13;101565.44;;;-0.52;100.00
17525;BME280;40431;52.198;9.902;2023-03-03T04:57:40;101566.34;;;-0.46;100.00
17525;BME280;40431;52.198;9.902;2023-03-03T05:00:10;101571.66;;;-0.40;100.00
17525;BME280;40431;52.198;9.902;2023-03-03T05:02:37;101569.00;;;-0.43;100.00
17525;BME280;40431;52.198;9.902;2023-03-03T05:05:04;101571.66;;;-0.36;100.00
17525;BME280;40431;52.198;9.902;2023-03-03T05:07:31;101565.44;;;-0.33;100.00
17525;BME280;40431;52.198;9.902;2023-03-03T05:09:57;101572.53;;;-0.26;100.00
17525;BME280;40431;52.198;9.902;2023-03-03T05:12:24;101577.88;;;-0.23;100.00
17525;BME280;40431;52.198;9.902;2023-03-03T05:14:51;101581.44;;;-0.24;100.00
17525;BME280;40431;52.198;9.902;2023-03-03T05:17:18;101580.53;;;-0.26;100.00
17525;BME280;40431;52.198;9.902;2023-03-03T05:19:45;101577.88;;;-0.26;100.00
17525;BME280;40431;52.198;9.902;2023-03-03T05:22:11;101579.66;;;-0.37;100.00
17525;BME280;40431;52.198;9.902;2023-03-03T05:24:37;101570.75;;;-0.36;100.00
17525;BME280;40431;52.198;9.902;2023-03-03T05:27:04;101569.00;;;-0.28;100.00
17525;BME280;40431;52.198;9.902;2023-03-03T05:29:30;101563.66;;;-0.22;100.00
17525;BME280;40431;52.198;9.902;2023-03-03T05:31:57;101569.00;;;-0.15;100.00
17525;BME280;40431;52.198;9.902;2023-03-03T05:34:25;101565.44;;;-0.14;100.00
17525;BME280;40431;52.198;9.902;2023-03-03T05:36:51;101555.66;;;-0.14;100.00
17525;BME280;40431;52.198;9.902;2023-03-03T05:39:18;101558.34;;;-0.08;100.00
17525;BME280;40431;52.198;9.902;2023-03-03T05:41:44;101548.53;;;-0.07;100.00
17525;BME280;40431;52.198;9.902;2023-03-03T05:44:10;101538.78;;;-0.05;100.00
17525;BME280;40431;52.198;9.902;2023-03-03T05:46:37;101538.78;;;-0.05;100.00
17525;BME280;40431;52.198;9.902;2023-03-03T05:49:03;101542.31;;;-0.03;100.00
17525;BME280;40431;52.198;9.902;2023-03-03T05:51:31;101541.44;;;-0.02;100.00
17525;BME280;40431;52.198;9.902;2023-03-03T05:53:57;101540.56;;;-0.01;100.00
17525;BME280;40431;52.198;9.902;2023-03-03T05:56:24;101542.34;;;0.00;100.00
17525;BME280;40431;52.198;9.902;2023-03-03T05:58:50;101545.88;;;0.02;100.00
17525;BME280;40431;52.198;9.902;2023-03-03T06:01:17;101537.88;;;0.01;100.00
17525;BME280;40431;52.198;9.902;2023-03-03T06:03:43;101538.75;;;0.01;100.00
17525;BME280;40431;52.198;9.902;2023-03-03T06:06:09;101551.19;;;0.05;100.00
17525;BME280;40431;52.198;9.902;2023-03-03T06:08:37;101560.09;;;0.07;100.00
17525;BME280;40431;52.198;9.902;2023-03-03T06:11:04;101543.22;;;0.01;100.00
17525;BME280;40431;52.198;9.902;2023-03-03T06:13:30;101556.53;;;0.01;100.00
17525;BME280;40431;52.198;9.902;2023-03-03T06:15:57;101564.56;;;-0.12;100.00
17525;BME280;40431;52.198;9.902;2023-03-03T06:18:23;101576.09;;;-0.08;100.00
17525;BME280;40431;52.198;9.902;2023-03-03T06:20:50;101576.09;;;-0.05;100.00
17525;BME280;40431;52.198;9.902;2023-03-03T06:23:17;101583.22;;;-0.07;100.00
17525;BME280;40431;52.198;9.902;2023-03-03T06:25:45;101591.22;;;-0.09;100.00
17525;BME280;40431;52.198;9.902;2023-03-03T06:28:12;101594.75;;;-0.08;100.00
17525;BME280;40431;52.198;9.902;2023-03-03T06:30:38;101597.41;;;-0.08;100.00
17525;BME280;40431;52.198;9.902;2023-03-03T06:33:05;101592.09;;;-0.08;100.00
17525;BME280;40431;52.198;9.902;2023-03-03T06:35:31;101600.09;;;-0.05;100.00
17525;BME280;40431;52.198;9.902;2023-03-03T06:37:57;101598.34;;;0.00;100.00
17525;BME280;40431;52.198;9.902;2023-03-03T06:40:24;101607.19;;;0.04;100.00
17525;BME280;40431;52.198;9.902;2023-03-03T06:42:51;101595.63;;;0.06;100.00
17525;BME280;40431;52.198;9.902;2023-03-03T06:45:18;101605.41;;;0.12;100.00
17525;BME280;40431;52.198;9.902;2023-03-03T06:47:45;101608.09;;;0.01;100.00
17525;BME280;40431;52.198;9.902;2023-03-03T06:50:11;101601.88;;;-0.06;100.00
17525;BME280;40431;52.198;9.902;2023-03-03T06:52:38;101601.84;;;-0.04;100.00
17525;BME280;40431;52.198;9.902;2023-03-03T06:55:11;101602.78;;;-0.05;100.00
17525;BME280;40431;52.198;9.902;2023-03-03T06:57:38;101608.09;;;-0.02;100.00
17525;BME280;40431;52.198;9.902;2023-03-03T07:00:14;101609.88;;;-0.01;100.00
17525;BME280;40431;52.198;9.902;2023-03-03T07:02:41;101606.34;;;0.00;100.00
17525;BME280;40431;52.198;9.902;2023-03-03T07:05:11;101609.84;;;0.05;100.00
17525;BME280;40431;52.198;9.902;2023-03-03T07:07:39;101612.53;;;0.10;100.00
17525;BME280;40431;52.198;9.902;2023-03-03T07:10:10;101613.41;;;0.20;100.00
17525;BME280;40431;52.198;9.902;2023-03-03T07:12:38;101612.53;;;0.19;100.00
17525;BME280;40431;52.198;9.902;2023-03-03T07:15:15;101616.97;;;0.22;100.00
17525;BME280;40431;52.198;9.902;2023-03-03T07:17:44;101614.28;;;0.25;100.00
17525;BME280;40431;52.198;9.902;2023-03-03T07:20:18;101624.94;;;0.28;100.00
17525;BME280;40431;52.198;9.902;2023-03-03T07:22:45;101615.16;;;0.25;100.00
17525;BME280;40431;52.198;9.902;2023-03-03T07:25:19;101616.06;;;0.26;100.00
17525;BME280;40431;52.198;9.902;2023-03-03T07:27:45;101627.63;;;0.31;100.00
17525;BME280;40431;52.198;9.902;2023-03-03T07:30:23;101629.41;;;0.33;100.00
17525;BME280;40431;52.198;9.902;2023-03-03T07:32:52;101627.63;;;0.31;100.00
17525;BME280;40431;52.198;9.902;2023-03-03T07:35:35;101628.50;;;0.33;100.00
17525;BME280;40431;52.198;9.902;2023-03-03T07:38:16;101634.75;;;0.32;100.00
17525;BME280;40431;52.198;9.902;2023-03-03T07:40:46;101636.53;;;0.27;100.00
17525;BME280;40431;52.198;9.902;2023-03-03T07:43:30;101631.16;;;0.33;100.00
17525;BME280;40431;52.198;9.902;2023-03-03T07:46:13;101633.81;;;0.35;100.00
17525;BME280;40431;52.198;9.902;2023-03-03T07:48:42;101638.28;;;0.36;100.00
17525;BME280;40431;52.198;9.902;2023-03-03T07:51:12;101645.41;;;0.41;100.00
17525;BME280;40431;52.198;9.902;2023-03-03T07:53:41;101639.16;;;0.41;100.00
17525;BME280;40431;52.198;9.902;2023-03-03T07:56:27;101643.63;;;0.43;100.00
17525;BME280;40431;52.198;9.902;2023-03-03T07:58:54;101649.84;;;0.45;100.00
17525;BME280;40431;52.198;9.902;2023-03-03T08:01:35;101646.28;;;0.42;100.00
17525;BME280;40431;52.198;9.902;2023-03-03T08:04:11;101643.63;;;0.40;100.00
17525;BME280;40431;52.198;9.902;2023-03-03T08:06:43;101648.94;;;0.43;100.00
17525;BME280;40431;52.198;9.902;2023-03-03T08:09:35;101653.41;;;0.44;100.00
17525;BME280;40431;52.198;9.902;2023-03-03T08:12:26;101648.94;;;0.43;100.00
17525;BME280;40431;52.198;9.902;2023-03-03T08:14:54;101650.72;;;0.44;100.00
17525;BME280;40431;52.198;9.902;2023-03-03T08:17:23;101657.84;;;0.45;100.00
17525;BME280;40431;52.198;9.902;2023-03-03T08:19:54;101656.06;;;0.44;100.00
17525;BME280;40431;52.198;9.902;2023-03-03T08:22:27;101662.28;;;0.43;100.00
17525;BME280;40431;52.198;9.902;2023-03-03T08:24:56;101664.06;;;0.47;100.00
17525;BME280;40431;52.198;9.902;2023-03-03T08:27:22;101664.06;;;0.52;100.00
17525;BME280;40431;52.198;9.902;2023-03-03T08:29:48;101664.94;;;0.56;100.00
17525;BME280;40431;52.198;9.902;2023-03-03T08:32:15;101664.97;;;0.57;100.00
17525;BME280;40431;52.198;9.902;2023-03-03T08:34:43;101661.34;;;0.60;100.00
17525;BME280;40431;52.198;9.902;2023-03-03T08:37:09;101658.72;;;0.55;100.00
17525;BME280;40431;52.198;9.902;2023-03-03T08:39:36;101662.28;;;0.57;100.00
17525;BME280;40431;52.198;9.902;2023-03-03T08:42:02;101663.19;;;0.55;100.00
17525;BME280;40431;52.198;9.902;2023-03-03T08:44:29;101664.03;;;0.60;100.00
17525;BME280;40431;52.198;9.902;2023-03-03T08:46:55;101664.91;;;0.63;100.00
17525;BME280;40431;52.198;9.902;2023-03-03T08:49:21;101661.38;;;0.63;100.00
17525;BME280;40431;52.198;9.902;2023-03-03T08:51:49;101667.59;;;0.63;100.00
17525;BME280;40431;52.198;9.902;2023-03-03T08:54:16;101665.78;;;0.72;100.00
17525;BME280;40431;52.198;9.902;2023-03-03T08:56:43;101670.22;;;0.80;100.00
17525;BME280;40431;52.198;9.902;2023-03-03T08:59:09;101673.78;;;0.84;100.00
17525;BME280;40431;52.198;9.902;2023-03-03T09:01:37;101669.31;;;0.91;100.00
17525;BME280;40431;52.198;9.902;2023-03-03T09:04:04;101670.16;;;0.94;100.00
17525;BME280;40431;52.198;9.902;2023-03-03T09:06:30;101667.56;;;0.87;100.00
17525;BME280;40431;52.198;9.902;2023-03-03T09:08:58;101677.31;;;0.91;100.00
17525;BME280;40431;52.198;9.902;2023-03-03T09:11:26;101670.19;;;0.93;100.00
17525;BME280;40431;52.198;9.902;2023-03-03T09:13:58;101673.72;;;0.98;100.00
17525;BME280;40431;52.198;9.902;2023-03-03T09:16:29;101674.59;;;1.03;100.00
17525;BME280;40431;52.198;9.902;2023-03-03T09:19:14;101679.00;;;1.10;100.00
17525;BME280;40431;52.198;9.902;2023-03-03T09:21:41;101676.34;;;1.15;100.00
17525;BME280;40431;52.198;9.902;2023-03-03T09:24:17;101666.53;;;1.19;100.00
17525;BME280;40431;52.198;9.902;2023-03-03T09:26:48;101667.41;;;1.24;100.00
17525;BME280;40431;52.198;9.902;2023-03-03T09:29:23;101665.66;;;1.21;100.00
17525;BME280;40431;52.198;9.902;2023-03-03T09:31:51;101664.75;;;1.24;100.00
17525;BME280;40431;52.198;9.902;2023-03-03T09:34:20;101661.19;;;1.20;100.00
17525;BME280;40431;52.198;9.902;2023-03-03T09:36:48;101660.31;;;1.21;100.00
17525;BME280;40431;52.198;9.902;2023-03-03T09:39:18;101660.28;;;1.20;100.00
17525;BME280;40431;52.198;9.902;2023-03-03T09:41:58;101671.00;;;1.16;100.00
17525;BME280;40431;52.198;9.902;2023-03-03T09:44:50;101664.72;;;1.21;100.00
17525;BME280;40431;52.198;9.902;2023-03-03T09:47:37;101663.81;;;1.29;100.00
17525;BME280;40431;52.198;9.902;2023-03-03T09:50:14;101667.34;;;1.31;100.00
17525;BME280;40431;52.198;9.902;2023-03-03T09:52:49;101668.25;;;1.32;100.00
17525;BME280;40431;52.198;9.902;2023-03-03T09:55:26;101665.63;;;1.23;100.00
17525;BME280;40431;52.198;9.902;2023-03-03T09:58:05;101662.03;;;1.27;100.00
17525;BME280;40431;52.198;9.902;2023-03-03T10:00:45;101661.16;;;1.28;100.00
17525;BME280;40431;52.198;9.902;2023-03-03T10:03:34;101671.88;;;1.19;100.00
17525;BME280;40431;52.198;9.902;2023-03-03T10:06:10;101671.88;;;1.20;100.00
17525;BME280;40431;52.198;9.902;2023-03-03T10:08:53;101665.66;;;1.21;100.00
17525;BME280;40431;52.198;9.902;2023-03-03T10:11:28;101672.69;;;1.31;100.00
17525;BME280;40431;52.198;9.902;2023-03-03T10:14:12;101670.00;;;1.39;100.00
17525;BME280;40431;52.198;9.902;2023-03-03T10:17:08;101673.53;;;1.44;100.00
17525;BME280;40431;52.198;9.902;2023-03-03T10:19:48;101672.66;;;1.44;100.00
17525;BME280;40431;52.198;9.902;2023-03-03T10:22:22;101669.09;;;1.42;100.00
17525;BME280;40431;52.198;9.902;2023-03-03T10:25:07;101670.88;;;1.43;100.00
17525;BME280;40431;52.198;9.902;2023-03-03T10:27:54;101677.09;;;1.46;100.00
17525;BME280;40431;52.198;9.902;2023-03-03T10:30:34;101670.84;;;1.47;100.00
17525;BME280;40431;52.198;9.902;2023-03-03T10:33:08;101678.84;;;1.54;100.00
17525;BME280;40431;52.198;9.902;2023-03-03T10:36:08;101683.22;;;1.65;100.00
17525;BME280;40431;52.198;9.902;2023-03-03T10:38:45;101675.16;;;1.70;100.00
17525;BME280;40431;52.198;9.902;2023-03-03T10:41:27;101677.81;;;1.76;100.00
17525;BME280;40431;52.198;9.902;2023-03-03T10:44:08;101680.44;;;1.82;100.00
17525;BME280;40431;52.198;9.902;2023-03-03T10:46:59;101684.91;;;1.83;100.00
17525;BME280;40431;52.198;9.902;2023-03-03T10:49:39;101680.34;;;1.95;100.00
17525;BME280;40431;52.198;9.902;2023-03-03T10:52:25;101686.56;;;1.98;100.00
17525;BME280;40431;52.198;9.902;2023-03-03T10:55:12;101679.50;;;1.90;100.00
17525;BME280;40431;52.198;9.902;2023-03-03T10:57:48;101683.91;;;1.97;100.00
17525;BME280;40431;52.198;9.902;2023-03-03T11:00:22;101675.97;;;1.83;100.00
17525;BME280;40431;52.198;9.902;2023-03-03T11:03:12;101683.13;;;1.81;100.00
17525;BME280;40431;52.198;9.902;2023-03-03T11:05:47;101676.88;;;1.83;100.00
17525;BME280;40431;52.198;9.902;2023-03-03T11:08:19;101676.81;;;1.90;100.00
17525;BME280;40431;52.198;9.902;2023-03-03T11:10:51;101671.44;;;1.93;100.00
17525;BME280;40431;52.198;9.902;2023-03-03T11:13:23;101668.78;;;1.94;100.00
17525;BME280;40431;52.198;9.902;2023-03-03T11:16:04;101659.94;;;1.81;100.00
17525;BME280;40431;52.198;9.902;2023-03-03T11:18:36;101663.50;;;1.83;100.00
17525;BME280;40431;52.198;9.902;2023-03-03T11:21:08;101662.53;;;1.94;100.00
17525;BME280;40431;52.198;9.902;2023-03-03T11:23:49;101661.59;;;1.99;100.00
17525;BME280;40431;52.198;9.902;2023-03-03T11:26:36;101662.44;;;2.06;100.00
17525;BME280;40431;52.198;9.902;2023-03-03T11:29:18;101660.66;;;2.05;100.00
17525;BME280;40431;52.198;9.902;2023-03-03T11:31:52;101658.88;;;2.04;100.00
17525;BME280;40431;52.198;9.902;2023-03-03T11:34:36;101658.94;;;1.99;100.00
17525;BME280;40431;52.198;9.902;2023-03-03T11:37:12;101652.72;;;1.91;100.00
17525;BME280;40431;52.198;9.902;2023-03-03T11:39:42;101657.09;;;2.03;100.00
17525;BME280;40431;52.198;9.902;2023-03-03T11:42:14;101657.09;;;2.06;100.00
17525;BME280;40431;52.198;9.902;2023-03-03T11:44:48;101648.19;;;2.04;100.00
17525;BME280;40431;52.198;9.902;2023-03-03T11:47:21;101653.44;;;2.13;100.00
17525;BME280;40431;52.198;9.902;2023-03-03T11:49:53;101656.09;;;2.16;100.00
17525;BME280;40431;52.198;9.902;2023-03-03T11:52:26;101651.72;;;2.09;100.00
17525;BME280;40431;52.198;9.902;2023-03-03T11:54:59;101648.22;;;2.01;100.00
17525;BME280;40431;52.198;9.902;2023-03-03T11:57:31;101646.41;;;2.03;100.00
17525;BME280;40431;52.198;9.902;2023-03-03T12:00:04;101645.53;;;2.01;100.00
17525;BME280;40431;52.198;9.902;2023-03-03T12:02:52;101644.63;;;2.05;100.00
17525;BME280;40431;52.198;9.902;2023-03-03T12:05:38;101640.06;;;2.15;100.00
17525;BME280;40431;52.198;9.902;2023-03-03T12:08:16;101639.09;;;2.21;100.00
17525;BME280;40431;52.198;9.902;2023-03-03T12:10:51;101639.00;;;2.33;100.00
17525;BME280;40431;52.198;9.902;2023-03-03T12:13:29;101630.97;;;2.34;100.00
17525;BME280;40431;52.198;9.902;2023-03-03T12:16:06;101621.97;;;2.40;100.00
17525;BME280;40431;52.198;9.902;2023-03-03T12:18:51;101624.72;;;2.36;100.00
17525;BME280;40431;52.198;9.902;2023-03-03T12:21:32;101614.88;;;2.36;100.00
17525;BME280;40431;52.198;9.902;2023-03-03T12:24:10;101617.44;;;2.50;100.00
17525;BME280;40431;52.198;9.902;2023-03-03T12:26:46;101610.28;;;2.50;100.00
17525;BME280;40431;52.198;9.902;2023-03-03T12:29:25;101604.06;;;2.47;100.00
17525;BME280;40431;52.198;9.902;2023-03-03T12:32:01;101608.41;;;2.59;100.00
17525;BME280;40431;52.198;9.902;2023-03-03T12:34:35;101617.22;;;2.67;100.00
17525;BME280;40431;52.198;9.902;2023-03-03T12:37:10;101603.78;;;2.73;100.00
17525;BME280;40431;52.198;9.902;2023-03-03T12:39:44;101597.53;;;2.71;100.00
17525;BME280;40431;52.198;9.902;2023-03-03T12:42:23;101599.38;;;2.69;100.00
17525;BME280;40431;52.198;9.902;2023-03-03T12:44:59;101588.59;;;2.75;100.00
17525;BME280;40431;52.198;9.902;2023-03-03T12:47:35;101592.22;;;2.68;100.00
17525;BME280;40431;52.198;9.902;2023-03-03T12:50:21;101585.03;;;2.73;100.00
17525;BME280;40431;52.198;9.902;2023-03-03T12:52:56;101587.69;;;2.75;100.00
17525;BME280;40431;52.198;9.902;2023-03-03T12:55:35;101578.72;;;2.77;100.00
17525;BME280;40431;52.198;9.902;2023-03-03T12:58:12;101581.41;;;2.77;100.00
17525;BME280;40431;52.198;9.902;2023-03-03T13:00:48;101584.88;;;2.86;100.00
17525;BME280;40431;52.198;9.902;2023-03-03T13:03:26;101578.66;;;2.83;100.00
17525;BME280;40431;52.198;9.902;2023-03-03T13:06:00;101582.19;;;2.86;100.00